Time;durP1;ratioP1;P1;durP2;ratioP2;P2;SDS_P1;SDS_P2;PMS_P1;PMS_P2;Temp;Humidity;BMP_temperature;BMP_pressure;BME280_temperature;BME280_humidity;BME280_pressure;Samples;Min_cycle;Max_cycle;Signal;HPM_P1;HPM_P2
2021/12/04 00:01:10;;;;;;;;;;;21.20;35.10;;;;;;4994511;28;20372;-51
2021/12/04 00:03:37;;;;;;;;;;;21.20;35.10;;;;;;4997248;28;19930;-47
2021/12/04 00:06:09;;;;;;;;;;;21.20;35.10;;;;;;4996859;28;20032;-55
2021/12/04 00:08:36;;;;;;;;;;;21.20;35.20;;;;;;5003374;28;19930;-51
2021/12/04 00:11:03;;;;;;;;;;;21.10;35.10;;;;;;4993550;28;20004;-51
2021/12/04 00:13:30;;;;;;;;;;;21.10;35.20;;;;;;4996603;28;19926;-51
2021/12/04 00:15:57;;;;;;;;;;;21.10;35.20;;;;;;5009953;28;19937;-51
2021/12/04 00:18:23;;;;;;;;;;;21.10;35.20;;;;;;5010343;28;19925;-51
2021/12/04 00:20:50;;;;;;;;;;;21.10;35.30;;;;;;5006232;28;19976;-55
2021/12/04 00:23:18;;;;;;;;;;;21.00;35.20;;;;;;5001466;28;19929;-54
2021/12/04 00:25:45;;;;;;;;;;;21.00;35.20;;;;;;5003202;28;19929;-48
2021/12/04 00:28:12;;;;;;;;;;;21.00;35.30;;;;;;5004815;28;19926;-52
2021/12/04 00:30:39;;;;;;;;;;;21.00;35.30;;;;;;4997454;28;20025;-51
2021/12/04 00:33:09;;;;;;;;;;;21.00;35.30;;;;;;5017202;28;19989;-55
2021/12/04 00:35:43;;;;;;;;;;;21.00;35.30;;;;;;5000520;28;19940;-48
2021/12/04 00:49:10;;;;;;;;;;;20.90;35.40;;;;;;5018644;28;19972;-54
2021/12/04 00:51:37;;;;;;;;;;;20.80;35.30;;;;;;5019756;28;20056;-53
2021/12/04 00:54:05;;;;;;;;;;;20.90;35.50;;;;;;5018828;28;19925;-49
2021/12/04 00:56:33;;;;;;;;;;;20.80;35.40;;;;;;5019958;28;19935;-51
2021/12/04 00:58:59;;;;;;;;;;;20.90;35.50;;;;;;4999501;28;19949;-53
2021/12/04 01:01:26;;;;;;;;;;;20.90;35.50;;;;;;4999234;28;19925;-51
2021/12/04 01:03:53;;;;;;;;;;;20.80;35.40;;;;;;5015416;28;19929;-50
2021/12/04 01:06:20;;;;;;;;;;;20.80;35.50;;;;;;5019795;28;19949;-48
2021/12/04 01:08:46;;;;;;;;;;;20.80;35.50;;;;;;5019187;28;19929;-51
2021/12/04 01:11:13;;;;;;;;;;;20.80;35.50;;;;;;5020300;28;19925;-51
2021/12/04 01:13:41;;;;;;;;;;;20.80;35.50;;;;;;5005173;28;19926;-56
2021/12/04 01:16:10;;;;;;;;;;;20.80;35.60;;;;;;5008536;28;19926;-55
2021/12/04 01:18:37;;;;;;;;;;;20.80;35.50;;;;;;5008354;28;19930;-48
2021/12/04 01:21:04;;;;;;;;;;;20.80;35.60;;;;;;5023626;28;19937;-55
2021/12/04 01:23:31;;;;;;;;;;;20.80;35.60;;;;;;5006602;28;19925;-54
2021/12/04 01:25:57;;;;;;;;;;;20.80;35.60;;;;;;5004337;28;20347;-53
2021/12/04 01:28:24;;;;;;;;;;;20.80;35.70;;;;;;5012144;28;19972;-52
2021/12/04 01:30:52;;;;;;;;;;;20.80;35.60;;;;;;5015739;28;19976;-53
2021/12/04 01:33:19;;;;;;;;;;;20.70;35.60;;;;;;5000941;28;19933;-53
2021/12/04 01:35:45;;;;;;;;;;;20.70;35.60;;;;;;4998058;28;20026;-49
2021/12/04 01:38:12;;;;;;;;;;;20.70;35.60;;;;;;5000181;28;20343;-50
2021/12/04 01:40:39;;;;;;;;;;;20.70;35.60;;;;;;5007513;28;19993;-51
2021/12/04 01:43:07;;;;;;;;;;;20.70;35.70;;;;;;5009909;28;19926;-50
2021/12/04 01:45:34;;;;;;;;;;;20.70;35.70;;;;;;5008281;28;20373;-53
2021/12/04 01:48:02;;;;;;;;;;;20.70;35.70;;;;;;5000902;28;20036;-54
2021/12/04 01:50:29;;;;;;;;;;;20.70;35.70;;;;;;5002205;28;19925;-49
2021/12/04 01:52:57;;;;;;;;;;;20.70;35.80;;;;;;5006908;28;20410;-49
2021/12/04 01:55:25;;;;;;;;;;;20.70;35.80;;;;;;5016674;28;20064;-51
2021/12/04 01:57:51;;;;;;;;;;;20.70;35.80;;;;;;5003645;28;19930;-51
2021/12/04 02:00:18;;;;;;;;;;;20.70;35.80;;;;;;5008152;28;19941;-53
2021/12/04 02:02:45;;;;;;;;;;;20.70;35.80;;;;;;5002522;28;20387;-54
2021/12/04 02:05:13;;;;;;;;;;;20.70;35.80;;;;;;5000382;28;19961;-51
2021/12/04 02:07:39;;;;;;;;;;;20.70;35.80;;;;;;5000168;28;19957;-50
2021/12/04 02:10:06;;;;;;;;;;;20.70;35.90;;;;;;5004466;28;19980;-56
2021/12/04 02:12:33;;;;;;;;;;;20.70;35.90;;;;;;4998443;28;19960;-53
2021/12/04 02:15:01;;;;;;;;;;;20.70;35.90;;;;;;5004668;28;19935;-51
2021/12/04 02:17:27;;;;;;;;;;;20.70;35.90;;;;;;4997596;28;19937;-52
2021/12/04 02:19:54;;;;;;;;;;;20.70;35.90;;;;;;5007586;28;19992;-51
2021/12/04 02:22:22;;;;;;;;;;;20.70;35.90;;;;;;4999459;28;19925;-54
2021/12/04 02:24:49;;;;;;;;;;;20.60;35.90;;;;;;4997945;28;20017;-52
2021/12/04 02:27:16;;;;;;;;;;;20.70;35.90;;;;;;5004981;28;19937;-53
2021/12/04 02:29:47;;;;;;;;;;;20.70;36.00;;;;;;5001487;28;20016;-53
2021/12/04 02:32:14;;;;;;;;;;;20.70;36.00;;;;;;5007017;28;19972;-54
2021/12/04 02:34:40;;;;;;;;;;;20.60;35.90;;;;;;4998810;28;19930;-54
2021/12/04 02:37:07;;;;;;;;;;;20.60;35.90;;;;;;4996536;28;19926;-53
2021/12/04 02:39:38;;;;;;;;;;;20.60;35.90;;;;;;4998695;28;19996;-54
2021/12/04 02:42:05;;;;;;;;;;;20.60;35.90;;;;;;4996928;28;19961;-53
2021/12/04 02:44:32;;;;;;;;;;;20.60;35.90;;;;;;4996788;28;19929;-54
2021/12/04 02:46:59;;;;;;;;;;;20.60;35.90;;;;;;4996670;28;20024;-49
2021/12/04 02:49:26;;;;;;;;;;;20.60;36.00;;;;;;4997519;28;20447;-52
2021/12/04 02:51:53;;;;;;;;;;;20.60;36.00;;;;;;4998925;28;19969;-50
2021/12/04 02:54:19;;;;;;;;;;;20.60;36.00;;;;;;5010004;28;20020;-52
2021/12/04 02:56:49;;;;;;;;;;;20.60;36.00;;;;;;5008206;28;20052;-52
2021/12/04 02:59:17;;;;;;;;;;;20.60;36.00;;;;;;4999534;28;19992;-50
2021/12/04 03:01:44;;;;;;;;;;;20.60;36.00;;;;;;4997395;28;19926;-53
2021/12/04 03:04:11;;;;;;;;;;;20.60;36.10;;;;;;5010627;28;19932;-53
2021/12/04 03:06:38;;;;;;;;;;;20.60;36.10;;;;;;5005337;28;19925;-54
2021/12/04 03:09:05;;;;;;;;;;;20.60;36.10;;;;;;5008303;28;19960;-49
2021/12/04 03:11:31;;;;;;;;;;;20.60;36.10;;;;;;5001369;28;19929;-53
2021/12/04 03:14:00;;;;;;;;;;;20.60;36.10;;;;;;5001483;28;19964;-51
2021/12/04 03:16:27;;;;;;;;;;;20.60;36.10;;;;;;5006292;28;19976;-55
2021/12/04 03:18:53;;;;;;;;;;;20.60;36.10;;;;;;4999829;28;20012;-52
2021/12/04 03:21:20;;;;;;;;;;;20.60;36.10;;;;;;5011061;28;19968;-55
2021/12/04 03:23:54;;;;;;;;;;;20.60;36.10;;;;;;5001669;28;19933;-55
2021/12/04 03:26:21;;;;;;;;;;;20.60;36.20;;;;;;5011468;28;19925;-53
2021/12/04 03:28:48;;;;;;;;;;;20.60;36.20;;;;;;5007578;28;19999;-52
2021/12/04 03:31:20;;;;;;;;;;;20.60;36.20;;;;;;5002618;28;19926;-49
2021/12/04 03:42:00;;;;;;;;;;;20.60;36.30;;;;;;5002952;28;19930;-51
2021/12/04 03:44:27;;;;;;;;;;;20.60;36.30;;;;;;5002291;28;19930;-53
2021/12/04 03:46:55;;;;;;;;;;;20.60;36.30;;;;;;4996122;28;19926;-53
2021/12/04 03:49:22;;;;;;;;;;;20.60;36.30;;;;;;5001379;28;19930;-50
2021/12/04 03:51:49;;;;;;;;;;;20.50;36.20;;;;;;4997651;28;19937;-53
2021/12/04 03:54:16;;;;;;;;;;;20.60;36.40;;;;;;4998552;28;20093;-54
2021/12/04 03:56:43;;;;;;;;;;;20.60;36.30;;;;;;5010364;28;19981;-54
2021/12/04 03:59:10;;;;;;;;;;;20.60;36.40;;;;;;5002422;28;19925;-51
2021/12/04 04:01:36;;;;;;;;;;;20.60;36.40;;;;;;4996537;28;19930;-51
2021/12/04 04:04:05;;;;;;;;;;;20.50;36.30;;;;;;5001918;28;19925;-52
2021/12/04 04:06:33;;;;;;;;;;;20.50;36.20;;;;;;5009254;28;19926;-55
2021/12/04 04:09:00;;;;;;;;;;;20.50;36.30;;;;;;5005574;28;19952;-51
2021/12/04 04:11:27;;;;;;;;;;;20.50;36.30;;;;;;5003598;28;19929;-53
2021/12/04 04:13:54;;;;;;;;;;;20.50;36.30;;;;;;5003956;28;20453;-53
2021/12/04 04:16:21;;;;;;;;;;;20.50;36.30;;;;;;4996180;28;20338;-53
2021/12/04 04:18:47;;;;;;;;;;;20.50;36.30;;;;;;4997832;28;19935;-52
2021/12/04 04:21:15;;;;;;;;;;;20.50;36.30;;;;;;5007627;28;19979;-49
2021/12/04 04:23:42;;;;;;;;;;;20.50;36.30;;;;;;4998267;28;20004;-53
2021/12/04 04:26:09;;;;;;;;;;;20.50;36.40;;;;;;5002311;28;19965;-52
2021/12/04 04:28:36;;;;;;;;;;;20.50;36.40;;;;;;5009543;28;20552;-54
2021/12/04 04:31:03;;;;;;;;;;;20.50;36.40;;;;;;4998944;28;19936;-50
2021/12/04 04:33:34;;;;;;;;;;;20.50;36.40;;;;;;5003986;28;19938;-53
2021/12/04 04:36:10;;;;;;;;;;;20.50;36.40;;;;;;5003715;28;20354;-50
2021/12/04 04:38:45;;;;;;;;;;;20.50;36.30;;;;;;4995535;28;19930;-51
2021/12/04 04:57:47;;;;;;;;;;;20.50;36.40;;;;;;4974474;28;20409;-51
2021/12/04 05:00:46;;;;;;;;;;;20.50;36.40;;;;;;4998367;28;19926;-50
2021/12/04 05:11:36;;;;;;;;;;;20.50;36.40;;;;;;4999455;28;19948;-52
2021/12/04 05:14:05;;;;;;;;;;;20.50;36.40;;;;;;4995177;28;19926;-50
2021/12/04 05:16:42;;;;;;;;;;;20.50;36.40;;;;;;4998725;28;19926;-53
2021/12/04 05:19:24;;;;;;;;;;;20.50;36.50;;;;;;5001772;28;19936;-56
2021/12/04 05:21:51;;;;;;;;;;;20.50;36.50;;;;;;5009684;28;19940;-49
2021/12/04 05:24:18;;;;;;;;;;;20.50;36.50;;;;;;4990121;28;19932;-52
2021/12/04 05:26:46;;;;;;;;;;;20.50;36.50;;;;;;4996816;28;19975;-54
2021/12/04 05:29:12;;;;;;;;;;;20.50;36.50;;;;;;5021652;28;19929;-51
2021/12/04 05:31:39;;;;;;;;;;;20.50;36.50;;;;;;5003956;28;19957;-52
2021/12/04 05:34:06;;;;;;;;;;;20.50;36.50;;;;;;5007840;28;19925;-51
2021/12/04 05:36:32;;;;;;;;;;;20.50;36.50;;;;;;5000014;28;19926;-55
2021/12/04 05:38:59;;;;;;;;;;;20.50;36.50;;;;;;5006886;28;19941;-51
2021/12/04 05:41:26;;;;;;;;;;;20.50;36.50;;;;;;5002853;28;19968;-55
2021/12/04 05:43:54;;;;;;;;;;;20.40;36.50;;;;;;5006183;28;19930;-54
2021/12/04 05:46:25;;;;;;;;;;;20.50;36.60;;;;;;5004058;28;19926;-51
2021/12/04 05:48:55;;;;;;;;;;;20.50;36.60;;;;;;5006956;28;20513;-55
2021/12/04 05:51:30;;;;;;;;;;;20.50;36.60;;;;;;4997376;28;20115;-54
2021/12/04 05:54:03;;;;;;;;;;;20.50;36.60;;;;;;5001983;28;20386;-52
2021/12/04 05:56:30;;;;;;;;;;;20.50;36.60;;;;;;5002363;28;19969;-52
2021/12/04 05:58:58;;;;;;;;;;;20.50;36.60;;;;;;4998235;28;19926;-51
2021/12/04 06:01:26;;;;;;;;;;;20.50;36.60;;;;;;5002682;28;20003;-54
2021/12/04 06:03:52;;;;;;;;;;;20.50;36.60;;;;;;5003680;28;20020;-52
2021/12/04 06:06:19;;;;;;;;;;;20.50;36.60;;;;;;4996883;28;19941;-53
2021/12/04 06:08:46;;;;;;;;;;;20.50;36.60;;;;;;5006262;28;19935;-52
2021/12/04 06:11:13;;;;;;;;;;;20.40;36.60;;;;;;4997772;28;19937;-49
2021/12/04 06:13:40;;;;;;;;;;;20.50;36.60;;;;;;5002976;28;20033;-54
2021/12/04 06:16:08;;;;;;;;;;;20.40;36.60;;;;;;5001008;28;19926;-48
2021/12/04 06:18:34;;;;;;;;;;;20.40;36.70;;;;;;5011736;28;19944;-53
2021/12/04 06:23:45;;;;;;;;;;;20.50;36.60;;;;;;5013709;28;19965;-55
2021/12/04 06:26:12;;;;;;;;;;;20.50;36.70;;;;;;5000854;28;20042;-52
2021/12/04 06:28:39;;;;;;;;;;;20.40;36.60;;;;;;5002056;28;20009;-55
2021/12/04 06:31:07;;;;;;;;;;;20.50;36.70;;;;;;5002957;28;19925;-50
2021/12/04 06:33:35;;;;;;;;;;;20.40;36.70;;;;;;4997738;28;19961;-51
2021/12/04 06:36:02;;;;;;;;;;;20.50;36.70;;;;;;5006122;28;19929;-52
2021/12/04 06:38:29;;;;;;;;;;;20.40;36.60;;;;;;4997030;28;19992;-50
2021/12/04 06:40:56;;;;;;;;;;;20.40;36.70;;;;;;5001930;28;19926;-49
2021/12/04 06:43:23;;;;;;;;;;;20.50;36.70;;;;;;5013709;28;19926;-55
2021/12/04 06:45:56;;;;;;;;;;;20.50;36.70;;;;;;4999037;28;19926;-51
2021/12/04 06:48:27;;;;;;;;;;;20.50;37.30;;;;;;4996498;28;19988;-50
2021/12/04 06:50:58;;;;;;;;;;;20.50;36.70;;;;;;4998292;28;20355;-51
2021/12/04 06:53:28;;;;;;;;;;;20.40;36.70;;;;;;5001671;28;19926;-49
2021/12/04 06:55:57;;;;;;;;;;;20.40;36.70;;;;;;5005151;28;19936;-52
2021/12/04 06:58:24;;;;;;;;;;;20.40;36.70;;;;;;5013070;28;19925;-50
2021/12/04 07:00:51;;;;;;;;;;;20.40;36.70;;;;;;5013311;28;20016;-53
2021/12/04 07:03:18;;;;;;;;;;;20.40;36.70;;;;;;5006679;28;20283;-52
2021/12/04 07:05:45;;;;;;;;;;;20.50;36.70;;;;;;5006782;28;19926;-52
2021/12/04 07:08:13;;;;;;;;;;;20.50;36.70;;;;;;5004732;28;19968;-50
2021/12/04 07:10:39;;;;;;;;;;;20.50;36.70;;;;;;5000586;28;19965;-49
2021/12/04 07:13:06;;;;;;;;;;;20.50;36.80;;;;;;4995791;28;19926;-52
2021/12/04 07:15:32;;;;;;;;;;;20.50;36.80;;;;;;5001494;28;19935;-53
2021/12/04 07:17:59;;;;;;;;;;;20.40;36.70;;;;;;5005109;28;20303;-52
2021/12/04 07:20:26;;;;;;;;;;;20.40;36.70;;;;;;5003931;28;19949;-52
2021/12/04 07:22:52;;;;;;;;;;;20.40;36.70;;;;;;5000362;28;19979;-52
2021/12/04 07:25:20;;;;;;;;;;;20.40;36.70;;;;;;4995053;28;19953;-55
2021/12/04 07:27:50;;;;;;;;;;;20.50;36.70;;;;;;5005633;28;19953;-57
2021/12/04 07:30:17;;;;;;;;;;;20.40;36.70;;;;;;5014532;28;19970;-52
2021/12/04 07:32:43;;;;;;;;;;;20.40;36.70;;;;;;5000695;28;19977;-55
2021/12/04 07:35:10;;;;;;;;;;;20.40;36.70;;;;;;4996416;28;19925;-52
2021/12/04 07:37:37;;;;;;;;;;;20.40;36.70;;;;;;5002639;28;19926;-54
2021/12/04 07:40:04;;;;;;;;;;;20.50;36.70;;;;;;5002687;28;19984;-50
2021/12/04 07:42:32;;;;;;;;;;;20.50;36.80;;;;;;4995682;28;19941;-53
2021/12/04 07:44:59;;;;;;;;;;;20.40;36.70;;;;;;5000148;28;19965;-55
2021/12/04 07:47:26;;;;;;;;;;;20.40;36.70;;;;;;5006406;28;20020;-54
2021/12/04 07:49:52;;;;;;;;;;;20.40;36.70;;;;;;4998683;28;20024;-54
2021/12/04 07:52:19;;;;;;;;;;;20.40;36.70;;;;;;5007335;28;19930;-56
2021/12/04 07:54:48;;;;;;;;;;;20.40;36.70;;;;;;5003437;28;19933;-54
2021/12/04 07:57:15;;;;;;;;;;;20.50;36.80;;;;;;4998902;28;19988;-51
2021/12/04 07:59:43;;;;;;;;;;;20.40;36.70;;;;;;5006357;28;20016;-55
2021/12/04 08:02:09;;;;;;;;;;;20.50;36.90;;;;;;5002073;28;19961;-52
2021/12/04 08:04:36;;;;;;;;;;;20.50;36.90;;;;;;4981868;28;19945;-53
2021/12/04 08:07:03;;;;;;;;;;;20.40;36.80;;;;;;5006088;28;19926;-54
2021/12/04 08:09:30;;;;;;;;;;;20.50;36.90;;;;;;4999542;28;19926;-50
2021/12/04 08:11:57;;;;;;;;;;;20.50;36.90;;;;;;4995863;28;19925;-55
2021/12/04 08:14:24;;;;;;;;;;;20.50;36.90;;;;;;4998353;28;19922;-50
2021/12/04 08:16:52;;;;;;;;;;;20.40;36.80;;;;;;4998933;28;19926;-53
2021/12/04 08:19:19;;;;;;;;;;;20.50;36.90;;;;;;5003099;28;19926;-51
2021/12/04 08:21:46;;;;;;;;;;;20.50;36.90;;;;;;4999668;28;19925;-53
2021/12/04 08:24:13;;;;;;;;;;;20.50;36.90;;;;;;4997398;28;19949;-52
2021/12/04 08:26:40;;;;;;;;;;;20.50;36.90;;;;;;4999579;28;19926;-53
2021/12/04 08:29:07;;;;;;;;;;;20.50;36.90;;;;;;5001238;28;19933;-51
2021/12/04 08:31:33;;;;;;;;;;;20.50;37.00;;;;;;5004123;28;19936;-53
2021/12/04 08:34:02;;;;;;;;;;;20.50;37.00;;;;;;5001400;28;19944;-50
2021/12/04 08:36:28;;;;;;;;;;;20.50;37.00;;;;;;5001621;28;20296;-50
2021/12/04 08:38:55;;;;;;;;;;;20.50;37.00;;;;;;4997875;28;19976;-49
2021/12/04 08:41:22;;;;;;;;;;;20.50;37.60;;;;;;4996857;28;19973;-51
2021/12/04 08:43:48;;;;;;;;;;;20.50;37.00;;;;;;5008788;28;19929;-50
2021/12/04 08:46:19;;;;;;;;;;;20.50;37.00;;;;;;5002834;28;19932;-50
2021/12/04 08:48:46;;;;;;;;;;;20.50;37.00;;;;;;4993042;28;19984;-51
2021/12/04 08:51:16;;;;;;;;;;;20.50;37.00;;;;;;5007521;28;19930;-55
2021/12/04 08:53:43;;;;;;;;;;;20.50;37.00;;;;;;4996803;28;19925;-53
2021/12/04 08:56:09;;;;;;;;;;;20.50;37.10;;;;;;4993651;28;19969;-49
2021/12/04 08:58:39;;;;;;;;;;;20.50;37.00;;;;;;5010454;28;19979;-51
2021/12/04 09:01:07;;;;;;;;;;;20.50;37.00;;;;;;5009726;28;19932;-51
2021/12/04 09:03:34;;;;;;;;;;;20.40;37.00;;;;;;5002476;28;20017;-54
2021/12/04 09:06:01;;;;;;;;;;;20.50;37.00;;;;;;5013176;28;19925;-49
2021/12/04 09:08:29;;;;;;;;;;;20.50;37.00;;;;;;4976279;28;19933;-56
2021/12/04 09:10:57;;;;;;;;;;;20.50;37.10;;;;;;4997875;28;19926;-52
2021/12/04 09:13:24;;;;;;;;;;;20.50;37.00;;;;;;4994008;28;20029;-49
2021/12/04 09:15:50;;;;;;;;;;;20.50;37.10;;;;;;4992021;28;20334;-54
2021/12/04 09:18:17;;;;;;;;;;;20.50;37.00;;;;;;4989765;28;19934;-50
2021/12/04 09:20:45;;;;;;;;;;;20.50;37.00;;;;;;5000948;28;19961;-54
2021/12/04 09:23:15;;;;;;;;;;;20.50;37.00;;;;;;4994957;28;19925;-50
2021/12/04 09:25:47;;;;;;;;;;;20.50;37.10;;;;;;4993582;28;20020;-51
2021/12/04 09:28:21;;;;;;;;;;;20.50;37.00;;;;;;4997236;28;19999;-53
2021/12/04 10:00:57;;;;;;;;;;;20.40;35.60;;;;;;4993181;28;20385;-51
2021/12/04 10:03:43;;;;;;;;;;;20.30;33.60;;;;;;4995935;28;20228;-53
2021/12/04 10:06:27;;;;;;;;;;;20.20;33.00;;;;;;5017354;28;19933;-47
2021/12/04 10:12:29;;;;;;;;;;;19.90;34.00;;;;;;4935798;29;19990;-50
2021/12/04 10:15:29;;;;;;;;;;;19.80;34.60;;;;;;4998517;28;20390;-52
2021/12/04 10:20:46;;;;;;;;;;;19.80;35.20;;;;;;4999556;28;19936;-50
2021/12/04 10:34:14;;;;;;;;;;;19.90;35.70;;;;;;5003726;28;19945;-52
2021/12/04 10:36:41;;;;;;;;;;;20.00;35.80;;;;;;5003428;28;20032;-46
2021/12/04 10:39:09;;;;;;;;;;;19.90;35.70;;;;;;5001917;28;19958;-53
2021/12/04 10:41:36;;;;;;;;;;;20.00;35.90;;;;;;4995003;28;19933;-46
2021/12/04 10:44:10;;;;;;;;;;;20.00;36.00;;;;;;5012825;28;19940;-51
2021/12/04 10:46:38;;;;;;;;;;;20.00;36.00;;;;;;4994116;28;19980;-53
2021/12/04 10:49:12;;;;;;;;;;;20.10;36.10;;;;;;4993733;28;19922;-54
2021/12/04 10:51:48;;;;;;;;;;;20.10;36.10;;;;;;5003845;28;19936;-53
2021/12/04 10:54:17;;;;;;;;;;;20.10;36.10;;;;;;4995579;28;20012;-47
2021/12/04 10:57:00;;;;;;;;;;;20.10;36.20;;;;;;5002433;28;19930;-50
2021/12/04 10:59:35;;;;;;;;;;;20.10;36.30;;;;;;4999797;28;20286;-53
2021/12/04 11:02:12;;;;;;;;;;;20.10;36.30;;;;;;4998733;28;19948;-47
2021/12/04 11:04:43;;;;;;;;;;;20.10;36.30;;;;;;4993813;28;19997;-50
2021/12/04 11:24:01;;;;;;;;;;;20.20;36.40;;;;;;4994013;28;19964;-48
2021/12/04 11:40:32;;;;;;;;;;;20.30;36.60;;;;;;4995324;28;19929;-49
2021/12/04 11:43:29;;;;;;;;;;;20.20;36.50;;;;;;5061766;27;1976223;-49
2021/12/04 11:46:14;;;;;;;;;;;20.30;36.70;;;;;;5089060;28;20396;-52
2021/12/04 11:48:41;;;;;;;;;;;20.30;36.60;;;;;;5090705;28;20006;-50
2021/12/04 11:51:11;;;;;;;;;;;20.30;36.70;;;;;;5094380;28;20011;-47
2021/12/04 11:53:38;;;;;;;;;;;20.30;36.70;;;;;;5093357;28;19932;-46
2021/12/04 11:56:05;;;;;;;;;;;20.30;36.70;;;;;;5092847;28;19967;-51
2021/12/04 11:58:34;;;;;;;;;;;20.30;36.70;;;;;;5095267;28;20381;-53
2021/12/04 12:01:01;;;;;;;;;;;20.40;36.80;;;;;;5089564;28;19946;-51
2021/12/04 12:03:29;;;;;;;;;;;20.40;36.80;;;;;;5096824;28;20439;-51
2021/12/04 12:05:56;;;;;;;;;;;20.30;36.70;;;;;;5095480;28;19928;-49
2021/12/04 12:08:24;;;;;;;;;;;20.30;36.80;;;;;;5099774;28;19934;-50
2021/12/04 12:10:53;;;;;;;;;;;20.40;36.90;;;;;;5092131;28;19962;-48
2021/12/04 12:13:24;;;;;;;;;;;20.40;36.90;;;;;;5095450;28;19985;-46
2021/12/04 12:15:58;;;;;;;;;;;20.40;37.00;;;;;;5088641;28;19924;-55
2021/12/04 12:18:25;;;;;;;;;;;20.40;37.00;;;;;;5092539;28;19924;-52
2021/12/04 12:20:55;;;;;;;;;;;20.40;37.00;;;;;;5108805;28;19963;-53
2021/12/04 12:23:24;;;;;;;;;;;20.40;37.00;;;;;;5088386;28;19924;-49
2021/12/04 12:31:52;;;;;;;;;;;20.40;37.10;;;;;;5086936;28;19928;-53
2021/12/04 12:36:02;;;;;;;;;;;20.50;37.20;;;;;;5086459;28;19927;-55
2021/12/04 12:37:15;;;;;;;;;;;20.40;37.10;;;;;;5107002;28;19928;-53
2021/12/04 12:39:51;;;;;;;;;;;20.50;37.20;;;;;;5092033;28;19934;-52
2021/12/04 12:42:23;;;;;;;;;;;20.50;37.20;;;;;;5089561;28;20354;-52
2021/12/04 12:44:50;;;;;;;;;;;20.50;37.20;;;;;;5105611;28;19971;-50
2021/12/04 12:47:23;;;;;;;;;;;20.50;37.30;;;;;;5086379;28;19932;-48
2021/12/04 12:49:51;;;;;;;;;;;20.50;37.30;;;;;;5086842;28;19928;-49
2021/12/04 12:52:20;;;;;;;;;;;20.50;37.30;;;;;;5087276;28;20305;-54
2021/12/04 12:54:51;;;;;;;;;;;20.50;37.30;;;;;;5088892;28;19942;-51
2021/12/04 12:57:21;;;;;;;;;;;20.50;37.30;;;;;;5076382;28;19959;-52
2021/12/04 13:11:35;;;;;;;;;;;20.50;37.60;;;;;;5075538;28;19925;-49
2021/12/04 13:13:53;;;;;;;;;;;20.50;37.50;;;;;;5072293;28;19930;-51
2021/12/04 13:16:30;;;;;;;;;;;20.60;37.60;;;;;;5073550;28;20029;-52
2021/12/04 13:19:00;;;;;;;;;;;20.60;37.60;;;;;;5096393;28;20412;-52
2021/12/04 13:21:27;;;;;;;;;;;20.60;37.60;;;;;;5071825;28;19924;-47
2021/12/04 13:24:01;;;;;;;;;;;20.60;37.60;;;;;;5073785;28;19932;-51
2021/12/04 13:26:32;;;;;;;;;;;20.60;37.70;;;;;;5092496;28;19924;-50
2021/12/04 13:29:00;;;;;;;;;;;20.60;37.60;;;;;;5074744;28;19987;-55
2021/12/04 13:31:26;;;;;;;;;;;20.60;37.60;;;;;;5093315;28;19924;-47
2021/12/04 13:33:53;;;;;;;;;;;20.60;37.60;;;;;;5074057;28;19988;-51
2021/12/04 13:36:22;;;;;;;;;;;20.60;37.60;;;;;;5092746;28;19924;-51
2021/12/04 13:38:54;;;;;;;;;;;20.60;37.70;;;;;;5086402;28;19932;-55
2021/12/04 13:41:21;;;;;;;;;;;20.60;37.70;;;;;;5074366;28;19924;-53
2021/12/04 13:43:50;;;;;;;;;;;20.60;37.70;;;;;;5075558;28;19997;-48
2021/12/04 13:46:18;;;;;;;;;;;20.60;37.70;;;;;;5075073;28;19932;-54
2021/12/04 13:48:45;;;;;;;;;;;20.60;37.70;;;;;;5095817;28;19924;-53
2021/12/04 13:51:18;;;;;;;;;;;20.70;37.90;;;;;;5073126;28;19973;-47
2021/12/04 13:53:46;;;;;;;;;;;20.70;37.90;;;;;;5075414;28;19924;-48
2021/12/04 13:56:15;;;;;;;;;;;20.70;37.90;;;;;;5077311;28;19932;-52
2021/12/04 13:58:45;;;;;;;;;;;20.70;37.90;;;;;;5070997;28;19973;-49
2021/12/04 14:01:14;;;;;;;;;;;20.70;38.00;;;;;;5074062;28;19950;-46
2021/12/04 14:03:42;;;;;;;;;;;20.70;38.00;;;;;;5070475;28;20118;-53
2021/12/04 14:06:13;;;;;;;;;;;20.70;38.00;;;;;;5076372;28;20019;-50
2021/12/04 14:08:40;;;;;;;;;;;20.70;38.00;;;;;;5072804;28;19928;-53
2021/12/04 14:11:10;;;;;;;;;;;20.70;38.00;;;;;;5075739;28;19924;-49
2021/12/04 14:13:40;;;;;;;;;;;20.70;38.00;;;;;;5072503;28;19952;-51
2021/12/04 14:16:08;;;;;;;;;;;20.70;38.00;;;;;;5070676;28;19925;-53
2021/12/04 14:18:39;;;;;;;;;;;20.70;38.00;;;;;;5072651;28;20050;-52
2021/12/04 14:21:07;;;;;;;;;;;20.70;38.00;;;;;;5071396;28;20011;-50
2021/12/04 14:23:34;;;;;;;;;;;20.70;38.10;;;;;;5071687;28;20349;-50
2021/12/04 14:26:03;;;;;;;;;;;20.70;38.10;;;;;;5091668;28;19982;-49
2021/12/04 14:28:33;;;;;;;;;;;20.70;38.10;;;;;;5073565;28;19928;-53
2021/12/04 14:31:01;;;;;;;;;;;20.70;38.10;;;;;;5073695;28;19924;-50
2021/12/04 14:33:28;;;;;;;;;;;20.70;38.10;;;;;;5070912;28;19924;-52
2021/12/04 14:36:03;;;;;;;;;;;20.80;38.30;;;;;;5076310;28;19929;-52
2021/12/04 14:38:31;;;;;;;;;;;20.80;38.30;;;;;;5085715;28;20206;-54
2021/12/04 14:40:59;;;;;;;;;;;20.80;38.30;;;;;;5073194;28;19924;-47
2021/12/04 14:43:27;;;;;;;;;;;20.80;38.20;;;;;;5072722;28;20314;-47
2021/12/04 14:45:59;;;;;;;;;;;20.80;38.30;;;;;;5092935;28;19977;-50
2021/12/04 14:48:29;;;;;;;;;;;20.80;38.30;;;;;;5094031;28;19952;-48
2021/12/04 14:51:03;;;;;;;;;;;20.80;38.30;;;;;;5071890;28;20388;-48
2021/12/04 14:53:30;;;;;;;;;;;20.80;38.30;;;;;;5073729;28;19950;-49
2021/12/04 14:55:58;;;;;;;;;;;20.80;38.40;;;;;;5069075;28;19992;-51
2021/12/04 14:58:31;;;;;;;;;;;20.80;38.40;;;;;;5068059;28;19924;-50
2021/12/04 15:01:04;;;;;;;;;;;20.80;38.40;;;;;;5071212;28;19999;-50
2021/12/04 15:03:33;;;;;;;;;;;20.80;38.40;;;;;;5088891;28;19932;-55
2021/12/04 15:06:03;;;;;;;;;;;20.80;38.50;;;;;;5068791;28;19929;-48
2021/12/04 15:08:31;;;;;;;;;;;20.80;38.50;;;;;;5065436;28;19928;-46
2021/12/04 15:10:58;;;;;;;;;;;20.80;38.50;;;;;;5071202;28;19932;-46
2021/12/04 15:13:26;;;;;;;;;;;20.80;38.60;;;;;;5072344;28;19928;-48
2021/12/04 15:15:53;;;;;;;;;;;20.80;38.60;;;;;;5089178;28;19932;-50
2021/12/04 15:18:24;;;;;;;;;;;20.80;38.60;;;;;;5071592;28;19936;-48
2021/12/04 15:20:55;;;;;;;;;;;20.90;38.60;;;;;;5071801;28;20000;-47
2021/12/04 15:23:23;;;;;;;;;;;20.80;38.60;;;;;;5088936;28;19939;-51
2021/12/04 15:25:54;;;;;;;;;;;20.80;38.60;;;;;;5078627;28;20322;-53
2021/12/04 15:28:21;;;;;;;;;;;20.80;38.60;;;;;;5068256;28;19928;-52
2021/12/04 15:30:48;;;;;;;;;;;20.80;38.70;;;;;;5092655;28;20000;-52
2021/12/04 15:33:24;;;;;;;;;;;20.90;38.60;;;;;;5073917;28;19924;-48
2021/12/04 15:35:52;;;;;;;;;;;20.90;38.70;;;;;;5091644;28;19938;-49
2021/12/04 15:38:28;;;;;;;;;;;20.90;38.80;;;;;;5072061;28;19939;-55
2021/12/04 15:41:03;;;;;;;;;;;20.90;38.80;;;;;;5071987;28;19981;-50
2021/12/04 15:43:37;;;;;;;;;;;20.90;38.80;;;;;;5073404;28;19939;-52
2021/12/04 15:46:09;;;;;;;;;;;20.90;38.80;;;;;;5070226;28;19933;-50
2021/12/04 15:49:06;;;;;;;;;;;20.90;38.90;;;;;;5072955;28;19928;-53
2021/12/04 15:52:47;;;;;;;;;;;20.90;38.90;;;;;;5073506;28;19924;-50
2021/12/04 15:54:50;;;;;;;;;;;20.90;39.00;;;;;;5071867;28;20018;-54
2021/12/04 15:57:20;;;;;;;;;;;20.90;39.00;;;;;;5069208;28;19978;-51
2021/12/04 15:59:49;;;;;;;;;;;20.90;39.10;;;;;;5071597;28;20369;-51
2021/12/04 16:02:18;;;;;;;;;;;20.90;39.00;;;;;;5090872;28;19934;-48
2021/12/04 16:04:50;;;;;;;;;;;20.90;39.00;;;;;;5075827;28;19924;-49
2021/12/04 16:07:24;;;;;;;;;;;20.90;39.00;;;;;;5090992;28;19924;-53
2021/12/04 16:09:51;;;;;;;;;;;20.90;39.10;;;;;;5072192;28;19924;-52
2021/12/04 16:12:21;;;;;;;;;;;20.90;39.10;;;;;;5072322;28;19928;-57
2021/12/04 16:14:52;;;;;;;;;;;20.90;39.10;;;;;;5088336;28;19924;-49
2021/12/04 16:17:19;;;;;;;;;;;20.90;39.20;;;;;;5072091;28;20354;-54
2021/12/04 16:19:51;;;;;;;;;;;20.90;39.10;;;;;;5069838;28;19975;-49
2021/12/04 16:22:20;;;;;;;;;;;20.90;39.20;;;;;;5073911;28;19932;-55
2021/12/04 16:24:50;;;;;;;;;;;20.90;39.20;;;;;;5091652;28;19924;-52
2021/12/04 16:27:22;;;;;;;;;;;20.90;39.20;;;;;;5091582;28;19946;-53
2021/12/04 16:29:55;;;;;;;;;;;20.90;39.20;;;;;;5075674;28;19977;-51
2021/12/04 16:32:39;;;;;;;;;;;20.90;39.20;;;;;;5074010;28;19939;-56
2021/12/04 16:35:19;;;;;;;;;;;20.90;39.20;;;;;;5091341;28;20373;-50
2021/12/04 16:37:49;;;;;;;;;;;20.90;39.20;;;;;;5072939;28;20005;-50
2021/12/04 16:40:20;;;;;;;;;;;20.90;39.20;;;;;;5073188;28;20046;-53
2021/12/04 16:42:47;;;;;;;;;;;20.90;39.20;;;;;;5071884;28;19924;-52
2021/12/04 16:45:16;;;;;;;;;;;20.90;39.20;;;;;;5072909;28;19998;-55
2021/12/04 16:47:50;;;;;;;;;;;20.90;39.20;;;;;;5073788;28;19967;-51
2021/12/04 16:50:21;;;;;;;;;;;20.90;39.20;;;;;;5091535;28;19944;-53